TimeEDT,TemperatureF,Dew PointF,Humidity,Sea Level PressureIn,VisibilityMPH,Wind Direction,Wind SpeedMPH,Gust SpeedMPH,PrecipitationIn,Events,Conditions,WindDirDegrees,DateUTC
12:52 AM,50.0,39.9,68,30.22,10.0,ENE,3.5,-,N/A,,Clear,70,2013-10-09 04:52:00
1:52 AM,50.0,41.0,71,30.22,10.0,East,3.5,-,N/A,,Clear,80,2013-10-09 05:52:00
2:52 AM,50.0,41.0,71,30.20,10.0,Variable,3.5,-,N/A,,Clear,0,2013-10-09 06:52:00
3:52 AM,46.9,41.0,80,30.20,10.0,Calm,Calm,-,N/A,,Clear,0,2013-10-09 07:52:00
4:52 AM,46.0,39.9,79,30.20,10.0,Calm,Calm,-,N/A,,Clear,0,2013-10-09 08:52:00
5:52 AM,46.0,39.9,79,30.22,10.0,East,3.5,-,N/A,,Clear,90,2013-10-09 09:52:00
6:52 AM,45.0,39.9,82,30.22,10.0,East,3.5,-,N/A,,Clear,80,2013-10-09 10:52:00
7:52 AM,45.0,39.0,80,30.23,10.0,Calm,Calm,-,N/A,,Clear,0,2013-10-09 11:52:00
8:52 AM,48.0,42.1,80,30.27,10.0,Calm,Calm,-,N/A,,Clear,0,2013-10-09 12:52:00
9:52 AM,53.1,42.1,66,30.27,10.0,Variable,5.8,-,N/A,,Clear,0,2013-10-09 13:52:00
10:52 AM,55.9,39.9,55,30.27,10.0,Variable,6.9,-,N/A,,Clear,0,2013-10-09 14:52:00
11:52 AM,60.1,39.9,47,30.25,10.0,East,4.6,-,N/A,,Clear,100,2013-10-09 15:52:00
12:52 PM,63.0,37.0,38,30.24,10.0,Variable,3.5,-,N/A,,Clear,0,2013-10-09 16:52:00
1:52 PM,66.0,36.0,33,30.20,10.0,Variable,3.5,-,N/A,,Clear,0,2013-10-09 17:52:00
2:52 PM,68.0,36.0,31,30.17,10.0,Variable,4.6,-,N/A,,Clear,0,2013-10-09 18:52:00
3:52 PM,69.1,34.0,27,30.17,10.0,Variable,5.8,-,N/A,,Clear,0,2013-10-09 19:52:00
4:52 PM,68.0,34.0,28,30.17,10.0,Variable,5.8,-,N/A,,Clear,0,2013-10-09 20:52:00
5:52 PM,66.0,36.0,33,30.18,10.0,Variable,3.5,-,N/A,,Clear,0,2013-10-09 21:52:00
6:52 PM,61.0,37.9,42,30.19,10.0,Calm,Calm,-,N/A,,Clear,0,2013-10-09 22:52:00
7:52 PM,59.0,37.9,46,30.20,10.0,Calm,Calm,-,N/A,,Clear,0,2013-10-09 23:52:00
8:52 PM,55.9,37.9,51,30.20,10.0,East,3.5,-,N/A,,Clear,90,2013-10-10 00:52:00
9:52 PM,54.0,36.0,51,30.20,10.0,East,3.5,-,N/A,,Clear,90,2013-10-10 01:52:00
10:52 PM,53.1,37.0,55,30.19,10.0,East,3.5,-,N/A,,Clear,90,2013-10-10 02:52:00
11:52 PM,50.0,37.0,61,30.17,10.0,Calm,Calm,-,N/A,,Clear,0,2013-10-10 03:52:00